Bethune, Colorado
Current Conditions -  °F | °C
As of 4:53 PM on Wednesday 22 Oct 2014 (Local Time) from KITR Reporting Station
Clear Clear  
Wind Chill: 71°   Ceiling: Unl
Heat Index: 71°   Visibility: 10mi
Dew Point: 39°   Wind: 8mph
Humidity: 31%   Direction: 20°NNE
Pressure: 30.05"   Gusts: NA
Location:  39.3°N, 102.42°W
Report Text: KITR 222253Z AUTO 02007KT 10SM CLR 22/04 A3005 RMK AO2 SLP135 T02170039
Loading
Personal Weather Stations






























Interactive Weather Map
Tropical Storm Tracking
New forecast layout! Learn more

10-Day Weather Forecast

Advertisements
Track Severe Weather on mobile